Latest Weather Observations for Hobart

IDT60801

Issued at 2:31 pm EDT Friday 19 December 2014 (issued every 30 minutes, with the page automatically refreshed every 10 minutes)

About weather observations | Map of weather stations | Latest weather observations for TAS | Other Formats
Station Details ID: 094029 Name: HOBART (ELLERSLIE ROAD) Lat: -42.89 Lon: 147.33 Height: 50.5 m
Data from the previous 72 hours. | See also: Recent months at Hobart
Date/Time
EDT
Temp
°C
App
Temp
°C
Dew
Point
Rel
Hum
%
Delta-T
°C
Wind Press
QNH
hPa
Press
MSL
hPa
Rain
since 9 am
mm
Dir
 
Spd
km/h
Gust
km/h
Spd
kts
Gust
kts
19/02:30pm 16.7 13.3 2.0 37 6.6 ESE 9 13 5 7 1011.8 1011.7 0.0
19/02:00pm 15.7 11.6 2.0 39 6.1 E 13 17 7 9 1011.8 1011.7 0.0
19/01:30pm 15.7 11.6 4.1 46 5.4 SSW 15 24 8 13 1012.0 1011.9 0.0
19/01:00pm 15.4 11.0 2.8 42 5.7 E 15 20 8 11 1012.0 1011.9 0.0
19/12:30pm 16.1 11.5 1.7 38 6.4 ENE 15 20 8 11 1011.8 1011.7 0.0
19/12:00pm 15.0 10.9 2.5 43 5.6 SW 13 24 7 13 1012.0 1011.9 0.0
19/11:30am 15.4 12.6 3.1 43 5.6 N 7 15 4 8 1012.1 1012.0 0.0
19/11:00am 15.4 12.6 3.4 44 5.5 N 7 13 4 7 1012.2 1012.1 0.0
19/10:30am 14.1 10.3 3.8 50 4.7 N 13 20 7 11 1012.3 1012.2 0.0
19/10:00am 13.6 9.6 4.8 55 4.1 NNW 15 28 8 15 1012.4 1012.3 0.0
19/09:30am 14.3 10.9 2.0 43 5.4 W 9 15 5 8 1012.4 1012.3 0.0
19/09:00am 14.3 10.3 2.6 45 5.2 SW 13 20 7 11 1012.4 1012.3 0.4
19/08:30am 14.1 10.0 2.3 45 5.2 SSW 13 22 7 12 1012.1 1012.0 0.4
19/08:00am 13.4 10.7 3.7 52 4.4 NW 7 13 4 7 1011.8 1011.7 0.4
19/07:30am 13.0 10.1 4.5 56 3.9 N 9 15 5 8 1011.3 1011.2 0.4
19/07:00am 11.2 8.3 4.6 64 3.0 N 9 13 5 7 1011.1 1011.0 0.4
19/06:30am 10.3 8.0 5.0 69 2.4 W 6 11 3 6 1010.8 1010.7 0.4
19/06:00am 9.4 6.9 5.0 74 2.0 SSW 7 9 4 5 1010.2 1010.2 0.4
19/05:30am 9.0 7.4 4.7 74 1.9 S 2 11 1 6 1009.8 1009.8 0.4
19/05:00am 9.5 7.0 4.6 71 2.2 S 7 11 4 6 1009.2 1009.2 0.4
19/04:30am 10.4 8.0 4.1 65 2.8 ESE 6 9 3 5 1008.8 1008.8 0.4
19/04:00am 10.4 6.6 3.9 64 2.9 SW 13 20 7 11 1008.4 1008.4 0.4
19/03:30am 10.0 8.1 4.7 69 2.4 SSE 4 11 2 6 1008.1 1008.1 0.4
19/03:00am 10.4 8.1 4.9 69 2.5 NNE 6 11 3 6 1008.0 1008.0 0.4
19/02:30am 10.9 7.5 4.0 62 3.1 NNW 11 19 6 10 1008.0 1008.0 0.4
19/02:00am 11.1 7.6 3.7 60 3.3 NNW 11 19 6 10 1007.6 1007.6 0.4
19/01:30am 11.4 8.0 3.8 59 3.4 N 11 17 6 9 1007.5 1007.5 0.4
19/01:00am 11.9 7.3 3.6 57 3.7 NNW 17 26 9 14 1007.4 1007.4 0.4
19/12:30am 12.2 7.9 3.2 54 4.0 NNE 15 26 8 14 1006.9 1006.9 0.4
19/12:00am 12.4 7.3 2.9 52 4.2 NNW 19 30 10 16 1006.6 1006.6 0.4
 
Date/Time
EDT
Temp
°C
App
Temp
°C
Dew
Point
Rel
Hum
%
Delta-T
°C
Wind Press
QNH
hPa
Press
MSL
hPa
Rain
since 9 am
mm
Dir
 
Spd
km/h
Gust
km/h
Spd
kts
Gust
kts
18/11:30pm 12.4 8.5 3.5 54 4.0 WSW 13 20 7 11 1006.5 1006.5 0.4
18/11:00pm 12.8 9.6 2.9 51 4.4 SW 9 17 5 9 1006.6 1006.6 0.4
18/10:30pm 13.5 9.3 1.8 45 5.1 SW 13 20 7 11 1006.3 1006.3 0.4
18/10:00pm 13.5 10.7 3.0 49 4.7 ESE 7 13 4 7 1005.8 1005.8 0.4
18/09:30pm 13.9 8.3 3.3 49 4.8 SW 22 35 12 19 1005.2 1005.2 0.4
18/09:00pm 14.4 11.4 4.0 49 4.8 SW 9 13 5 7 1004.3 1004.3 0.4
18/08:30pm 15.1 11.6 3.3 45 5.4 WSW 11 22 6 12 1003.7 1003.7 0.4
18/08:00pm 15.6 11.1 4.3 47 5.3 NW 17 26 9 14 1003.0 1002.9 0.4
18/07:30pm 16.1 10.3 4.2 45 5.6 NW 24 39 13 21 1002.5 1002.4 0.4
18/07:00pm 17.1 12.2 5.1 45 5.8 NW 20 37 11 20 1002.1 1002.0 0.4
18/06:30pm 16.9 11.1 4.5 43 5.9 NW 24 41 13 22 1001.4 1001.3 0.4
18/06:00pm 16.9 12.4 5.9 48 5.4 NW 19 30 10 16 1001.3 1001.2 0.4
18/05:30pm 16.6 12.3 7.0 53 4.8 NW 19 32 10 17 1001.0 1000.9 0.4
18/05:00pm 15.9 10.3 7.3 56 4.3 NW 26 37 14 20 1000.8 1000.7 0.4
18/04:30pm 16.2 11.4 7.2 55 4.5 NNW 22 35 12 19 1000.6 1000.5 0.4
18/04:00pm 16.5 13.4 10.3 67 3.3 WNW 17 33 9 18 1000.6 1000.5 0.4
18/03:30pm 16.6 10.6 10.2 66 3.4 NW 32 50 17 27 1000.3 1000.2 0.2
18/03:00pm 20.2 13.6 4.4 35 7.7 NNW 28 46 15 25 999.3 999.2 0.0
18/02:30pm 19.7 12.2 4.5 36 7.3 NNW 33 56 18 30 999.3 999.2 0.0
18/02:26pm 19.7 13.1 4.2 36 7.4 NNW 28 56 15 30 999.4 999.3 0.0
18/02:00pm 19.8 13.3 4.9 37 7.3 N 28 43 15 23 999.4 999.3 0.0
18/01:52pm 19.8 13.4 5.2 38 7.2 N 28 46 15 25 999.4 999.3 0.0
18/01:30pm 20.2 12.9 4.4 35 7.6 N 32 46 17 25 999.7 999.6 0.0
18/01:01pm 19.5 11.9 3.8 35 7.5 N 33 52 18 28 999.9 999.8 0.0
18/01:00pm 19.5 11.8 3.5 34 7.6 N 33 48 18 26 999.8 999.7 0.0
18/12:54pm 19.9 13.1 3.3 33 7.8 N 28 48 15 26 999.8 999.7 0.0
18/12:30pm 21.0 18.1 6.5 39 7.3 NNE 11 19 6 10 1000.2 1000.1 0.0
18/12:00pm 18.7 15.3 6.0 43 6.3 N 13 20 7 11 1001.0 1000.9 0.0
18/11:30am 18.0 14.4 6.6 47 5.7 N 15 24 8 13 1001.5 1001.4 0.0
18/11:00am 18.5 14.6 5.2 41 6.5 N 15 28 8 15 1001.7 1001.6 0.0
18/10:30am 18.4 13.6 4.7 40 6.6 NNW 19 28 10 15 1002.1 1002.0 0.0
18/10:00am 18.6 15.0 4.8 40 6.7 NNW 13 22 7 12 1002.5 1002.4 0.0
18/09:30am 16.0 11.3 3.1 42 5.9 NNW 17 26 9 14 1003.1 1003.0 0.0
18/09:00am 15.3 12.5 3.3 44 5.5 NW 7 15 4 8 1003.5 1003.5 0.0
18/08:30am 14.3 11.0 4.4 51 4.6 N 11 17 6 9 1003.8 1003.8 0.0
18/08:00am 12.2 7.9 5.1 62 3.3 NW 17 22 9 12 1004.1 1004.1 0.0
18/07:30am 11.3 6.6 5.2 66 2.8 NNW 19 24 10 13 1004.0 1004.0 0.0
18/07:00am 10.4 5.8 5.6 72 2.2 NNW 19 24 10 13 1004.0 1004.0 0.0
18/06:30am 10.0 5.4 5.4 73 2.1 NNW 19 24 10 13 1003.9 1003.9 0.0
18/06:00am 10.0 5.7 5.4 73 2.1 NNW 17 26 9 14 1003.8 1003.8 0.0
18/05:30am 10.1 5.2 5.1 71 2.3 NNW 20 24 11 13 1003.5 1003.5 0.0
18/05:00am 10.4 5.5 4.9 69 2.5 NNW 20 26 11 14 1003.6 1003.6 0.0
18/04:30am 11.0 6.2 4.6 64 2.9 NNW 19 26 10 14 1003.5 1003.5 0.0
18/04:00am 12.1 6.8 3.1 54 4.0 NNW 20 28 11 15 1003.6 1003.6 0.0
18/03:30am 11.6 7.4 3.8 59 3.5 NNW 15 20 8 11 1003.8 1003.8 0.0
18/03:00am 10.8 7.8 5.9 72 2.3 NW 11 17 6 9 1003.9 1003.9 0.0
18/02:30am 11.1 7.3 4.0 61 3.2 NW 13 17 7 9 1003.9 1003.9 0.0
18/02:00am 11.3 7.9 4.2 61 3.2 NW 11 13 6 7 1004.2 1004.2 0.0
18/01:30am 11.0 7.9 3.8 61 3.2 WNW 9 15 5 8 1004.4 1004.4 0.0
18/01:00am 11.5 8.8 3.9 59 3.4 W 7 9 4 5 1004.9 1004.9 0.0
18/12:30am 11.8 8.9 4.6 61 3.3 W 9 11 5 6 1005.1 1005.1 0.0
18/12:00am 12.6 10.3 4.8 59 3.6 W 6 9 3 5 1005.2 1005.2 0.0
 
Date/Time
EDT
Temp
°C
App
Temp
°C
Dew
Point
Rel
Hum
%
Delta-T
°C
Wind Press
QNH
hPa
Press
MSL
hPa
Rain
since 9 am
mm
Dir
 
Spd
km/h
Gust
km/h
Spd
kts
Gust
kts
17/11:30pm 13.3 10.3 3.9 53 4.3 WNW 9 13 5 7 1005.4 1005.4 0.0
17/11:00pm 14.1 12.4 5.7 57 4.0 NW 4 11 2 6 1005.6 1005.6 0.0
17/10:30pm 14.7 12.1 6.2 56 4.1 WNW 9 17 5 9 1005.9 1005.9 0.0
17/10:00pm 14.9 11.8 7.2 60 3.8 SW 13 19 7 10 1006.0 1006.0 0.0
17/09:30pm 15.3 12.3 7.7 60 3.8 SE 13 19 7 10 1005.9 1005.9 0.0
17/09:00pm 15.5 11.8 6.3 54 4.5 ESE 15 20 8 11 1005.7 1005.7 0.0
17/08:30pm 15.8 12.5 6.4 53 4.6 ESE 13 20 7 11 1005.4 1005.4 0.0
17/08:00pm 16.8 11.3 0.9 34 7.0 NNW 19 26 10 14 1005.2 1005.2 0.0
17/07:30pm 16.9 13.3 3.0 39 6.4 N 11 17 6 9 1004.9 1004.9 0.0
17/07:00pm 17.2 12.4 2.6 37 6.7 WNW 17 24 9 13 1004.6 1004.6 0.0
17/06:30pm 18.0 12.5 2.0 34 7.3 NW 20 33 11 18 1004.2 1004.2 0.0
17/06:00pm 18.6 14.0 1.3 31 7.8 WNW 15 22 8 12 1003.9 1003.9 0.0
17/05:30pm 18.5 13.7 0.1 29 8.1 NW 15 26 8 14 1003.9 1003.9 0.0
17/05:00pm 18.8 13.3 2.0 32 7.7 NW 20 33 11 18 1004.0 1004.0 0.0
17/04:30pm 18.5 12.4 0.1 29 8.1 NW 22 32 12 17 1004.0 1004.0 0.0
17/04:00pm 18.4 12.2 -0.1 28 8.1 NW 22 37 12 20 1003.9 1003.9 0.0
17/03:30pm 19.0 14.3 0.7 29 8.1 N 15 28 8 15 1003.5 1003.5 0.0
17/03:00pm 17.7 11.9 -0.3 29 7.8 NNW 20 37 11 20 1003.7 1003.7 0.0
17/02:30pm 19.4 14.2 0.3 27 8.5 NW 17 24 9 13 1003.8 1003.8 0.0
17/02:13pm 17.3 12.1 3.3 39 6.5 WNW 20 44 11 24 1003.8 1003.8 0.0
17/02:00pm 16.8 13.0 1.6 36 6.8 SSW 11 20 6 11 1003.8 1003.8 0.0
17/01:30pm 16.1 9.7 5.3 48 5.2 NW 28 44 15 24 1004.0 1004.0 0.0
17/01:00pm 16.6 11.6 3.8 42 6.0 W 19 32 10 17 1003.8 1003.8 0.0
17/12:30pm 16.5 9.1 1.8 37 6.6 NW 30 41 16 22 1003.4 1003.4 0.0
17/12:00pm 17.4 12.9 2.3 36 6.9 W 15 24 8 13 1003.1 1003.0 0.0
17/11:30am 15.0 9.1 5.6 53 4.5 NW 26 43 14 23 1003.0 1002.9 0.0
17/11:15am 14.7 8.1 1.8 41 5.7 WSW 26 50 14 27 1003.0 1002.9 0.0
17/11:00am 14.9 10.1 2.4 43 5.6 NW 17 28 9 15 1002.7 1002.6 0.0
17/10:30am 14.0 7.1 4.5 52 4.4 NNW 30 43 16 23 1002.6 1002.5 0.0
17/10:22am 13.6 7.2 3.4 50 4.6 NNW 26 43 14 23 1002.6 1002.5 0.0
17/10:00am 15.2 11.2 2.8 43 5.6 NNW 13 22 7 12 1002.2 1002.1 0.0
17/09:30am 13.5 7.6 3.9 52 4.4 NNW 24 35 13 19 1002.2 1002.1 0.0
17/09:00am 13.7 7.7 3.6 50 4.6 NW 24 37 13 20 1001.8 1001.7 20.2
17/08:30am 12.8 7.6 2.6 50 4.5 NW 19 28 10 15 1001.4 1001.3 20.0
17/08:00am 14.1 9.7 2.7 46 5.1 NW 15 24 8 13 1000.8 1000.7 20.0
17/07:30am 12.6 7.3 2.1 49 4.6 NNW 19 32 10 17 1000.3 1000.2 20.0
17/07:00am 12.3 6.6 0.7 45 4.9 WNW 20 33 11 18 999.6 999.5 20.0
17/06:30am 12.2 8.7 1.2 47 4.7 SSE 9 13 5 7 998.8 998.7 20.0
17/06:00am 11.7 8.6 1.4 49 4.4 NE 7 13 4 7 998.5 998.4 20.0
17/05:30am 11.3 6.6 0.8 48 4.4 N 15 22 8 12 997.9 997.8 20.0
17/05:00am 11.2 7.3 1.0 49 4.3 N 11 20 6 11 997.2 997.1 20.0
17/04:30am 11.8 7.1 0.9 47 4.6 WNW 15 24 8 13 996.5 996.4 20.0
17/04:00am 12.2 6.6 0.2 43 5.0 WNW 19 46 10 25 995.9 995.8 20.0
17/03:30am 12.2 8.4 1.5 48 4.6 ENE 11 24 6 13 995.4 995.3 20.0
17/03:00am 12.3 8.1 1.7 48 4.6 NNW 13 26 7 14 994.7 994.6 20.0
17/02:47am 12.6 5.5 1.2 45 4.8 WNW 28 61 15 33 994.5 994.4 20.0
17/02:43am 12.7 5.8 0.4 43 5.1 WNW 26 61 14 33 994.3 994.2 20.0
17/02:42am 12.7 6.2 0.4 43 5.1 NW 24 61 13 33 994.2 994.1 20.0
17/02:30am 12.6 7.0 0.9 44 4.9 NW 20 43 11 23 994.3 994.2 20.0
17/02:00am 12.6 8.8 1.5 46 4.8 WSW 11 20 6 11 994.0 993.9 20.0
17/01:30am 12.5 7.4 4.2 57 3.8 WSW 20 37 11 20 993.5 993.4 20.0
17/01:22am 13.0 6.4 2.1 47 4.7 WSW 26 48 14 26 993.4 993.3 20.0
17/01:20am 13.0 6.8 2.4 48 4.6 WSW 24 48 13 26 993.3 993.2 20.0
17/01:00am 12.7 9.3 6.0 63 3.2 S 13 22 7 12 992.9 992.8 20.0
17/12:30am 13.1 10.1 5.8 61 3.4 WNW 11 24 6 13 992.3 992.2 20.0
17/12:00am 12.7 9.8 6.7 67 2.9 NW 11 17 6 9 992.0 991.9 20.0
 
Date/Time
EDT
Temp
°C
App
Temp
°C
Dew
Point
Rel
Hum
%
Delta-T
°C
Wind Press
QNH
hPa
Press
MSL
hPa
Rain
since 9 am
mm
Dir
 
Spd
km/h
Gust
km/h
Spd
kts
Gust
kts
16/11:30pm 12.9 7.5 6.5 65 3.1 NNW 24 35 13 19 991.4 991.3 20.0
16/11:00pm 13.4 7.5 5.9 60 3.6 NNW 26 39 14 21 991.1 991.0 20.0
16/10:30pm 13.4 9.6 5.6 59 3.7 N 15 20 8 11 990.5 990.4 20.0
16/10:00pm 14.1 8.8 5.0 54 4.3 NW 22 35 12 19 989.7 989.7 20.0
16/09:30pm 14.6 10.5 6.2 57 4.0 N 17 30 9 16 988.6 988.6 20.0
16/09:00pm 15.6 10.9 6.2 53 4.6 WNW 20 37 11 20 987.8 987.8 20.0
16/08:30pm 15.8 10.6 7.2 56 4.3 NW 24 39 13 21 986.7 986.6 20.0
16/08:00pm 16.0 9.2 7.0 55 4.5 NW 32 52 17 28 986.4 986.3 20.0
16/07:56pm 16.0 10.0 7.0 55 4.5 NW 28 52 15 28 986.2 986.1 20.0
16/07:30pm 15.6 10.7 8.6 63 3.6 N 24 48 13 26 985.5 985.4 20.0
16/07:00pm 15.4 10.4 9.7 69 3.0 NNW 26 50 14 27 985.7 985.6 19.8
16/06:58pm 15.5 11.6 10.9 74 2.5 N 22 43 12 23 985.9 985.8 19.8
16/06:30pm 15.4 14.3 14.2 92 0.7 ESE 13 20 7 11 984.8 984.7 19.8
16/06:00pm 15.0 13.4 13.8 92 0.7 SE 15 22 8 12 984.6 984.5 18.2
16/05:30pm 15.4 13.8 13.8 90 0.9 SE 15 24 8 13 984.7 984.6 17.0
16/05:00pm 17.0 13.0 14.1 83 1.7 S 28 44 15 24 984.5 984.4 12.2
16/04:59pm 17.1 12.9 13.4 79 2.1 S 28 44 15 24 984.6 984.5 10.6
16/04:44pm 17.2 12.9 13.3 78 2.2 ESE 28 43 15 23 982.3 982.2 10.0
16/04:30pm 19.3 18.0 14.7 74 2.7 ESE 15 24 8 13 982.4 982.3 10.0
16/04:00pm 20.5 18.4 15.2 71 3.2 SSW 20 35 11 19 982.4 982.3 10.0
16/03:30pm 20.2 19.9 16.4 79 2.3 SE 13 22 7 12 983.9 983.8 10.0
16/03:00pm 18.1 14.6 15.6 85 1.5 S 28 46 15 25 984.5 984.4 10.0
16/02:33pm 19.4 16.6 16.3 82 1.9 SW 26 50 14 27 985.7 985.6 3.0

Other Formats:

Comma delimited format used in spreadsheet applications
http://www.bom.gov.au/fwo/IDT60801/IDT60801.94970.axf

JavaScript Object Notation format (JSON) in row-major order
http://www.bom.gov.au/fwo/IDT60801/IDT60801.94970.json